createdAt,value
2017-04-24T00:00:09.986Z,0
2017-04-24T00:01:10.753Z,0
2017-04-24T00:02:11.516Z,0
2017-04-24T00:03:12.539Z,0
2017-04-24T00:04:13.300Z,0
2017-04-24T00:05:14.064Z,0
2017-04-24T00:06:14.829Z,0
2017-04-24T00:07:15.591Z,0
2017-04-24T00:08:16.606Z,0
2017-04-24T00:09:17.370Z,0
2017-04-24T00:10:18.136Z,0
2017-04-24T00:11:18.899Z,0
2017-04-24T00:12:19.660Z,0
2017-04-24T00:13:20.729Z,0
2017-04-24T00:14:21.494Z,0
2017-04-24T00:15:22.256Z,0
2017-04-24T00:16:23.019Z,0
2017-04-24T00:17:23.781Z,0
2017-04-24T00:18:24.798Z,0
2017-04-24T00:19:25.559Z,0
2017-04-24T00:20:26.324Z,0
2017-04-24T00:21:27.090Z,0
2017-04-24T00:22:27.856Z,0
2017-04-24T00:23:28.876Z,0
2017-04-24T00:24:29.631Z,0
2017-04-24T00:25:30.395Z,0
2017-04-24T00:26:31.159Z,0
2017-04-24T00:27:31.923Z,0
2017-04-24T00:28:32.940Z,0
2017-04-24T00:29:33.703Z,0
2017-04-24T00:30:34.468Z,0
2017-04-24T00:31:35.235Z,0
2017-04-24T00:32:36.000Z,0
2017-04-24T00:33:37.010Z,0
2017-04-24T00:34:37.776Z,0
2017-04-24T00:35:38.538Z,0
2017-04-24T00:36:40.502Z,0
2017-04-24T00:37:41.265Z,0
2017-04-24T00:38:42.278Z,0
2017-04-24T00:39:43.039Z,0
2017-04-24T00:40:43.806Z,0
2017-04-24T00:41:44.572Z,0
2017-04-24T00:42:45.335Z,0
2017-04-24T00:43:46.349Z,0
2017-04-24T00:44:47.111Z,0
2017-04-24T00:45:47.873Z,0
2017-04-24T00:46:48.639Z,0
2017-04-24T00:47:49.406Z,0
2017-04-24T00:48:50.423Z,0
2017-04-24T00:49:51.188Z,0
2017-04-24T00:50:51.950Z,0
2017-04-24T00:51:52.713Z,0
2017-04-24T00:52:53.476Z,0
2017-04-24T00:53:54.490Z,0
2017-04-24T00:54:55.255Z,0
2017-04-24T00:55:56.017Z,0
2017-04-24T00:56:56.786Z,0
2017-04-24T00:57:57.545Z,0
2017-04-24T00:58:58.558Z,0
2017-04-24T00:59:59.323Z,0
2017-04-24T01:01:00.085Z,0
2017-04-24T01:02:00.849Z,0
2017-04-24T01:03:01.611Z,0
2017-04-24T01:04:02.625Z,0
2017-04-24T01:05:03.388Z,0
2017-04-24T01:06:04.153Z,0
2017-04-24T01:07:04.918Z,0
2017-04-24T01:08:05.683Z,0
2017-04-24T01:09:06.705Z,0
2017-04-24T01:10:07.464Z,0
2017-04-24T01:11:08.230Z,0
2017-04-24T01:12:08.993Z,0
2017-04-24T01:13:09.756Z,0
2017-04-24T01:14:10.771Z,0
2017-04-24T01:15:11.536Z,0
2017-04-24T01:16:12.298Z,0
2017-04-24T01:17:13.069Z,0
2017-04-24T01:18:13.828Z,0
2017-04-24T01:19:14.840Z,0
2017-04-24T01:20:15.605Z,0
2017-04-24T01:21:16.369Z,0
2017-04-24T01:22:17.133Z,0
2017-04-24T01:23:17.898Z,0
2017-04-24T01:24:18.961Z,0
2017-04-24T01:25:19.739Z,0
2017-04-24T01:26:20.489Z,0
2017-04-24T01:27:21.251Z,0
2017-04-24T01:28:22.017Z,0
2017-04-24T01:29:23.219Z,0
2017-04-24T01:30:23.980Z,0
2017-04-24T01:31:24.742Z,0
2017-04-24T01:32:25.506Z,0
2017-04-24T01:33:26.267Z,0
2017-04-24T01:34:27.283Z,0
2017-04-24T01:35:28.044Z,0
2017-04-24T01:36:28.818Z,0
2017-04-24T01:37:29.575Z,0
2017-04-24T01:38:30.338Z,0
2017-04-24T01:39:31.354Z,0
2017-04-24T01:40:32.119Z,0
2017-04-24T01:41:32.891Z,0
2017-04-24T01:42:33.655Z,0
2017-04-24T01:43:34.417Z,0
2017-04-24T01:44:35.435Z,0
2017-04-24T01:45:36.198Z,0
2017-04-24T01:46:37.149Z,0
2017-04-24T01:47:37.912Z,0
2017-04-24T01:48:38.680Z,0
2017-04-24T01:49:39.691Z,0
2017-04-24T01:50:40.456Z,0
2017-04-24T01:51:41.219Z,0
2017-04-24T01:52:41.983Z,0
2017-04-24T01:53:42.748Z,0
2017-04-24T01:54:43.761Z,0
2017-04-24T01:55:44.526Z,0
2017-04-24T01:56:45.291Z,0
2017-04-24T01:57:46.056Z,0
2017-04-24T01:58:46.821Z,0
2017-04-24T01:59:47.837Z,0
2017-04-24T02:00:48.602Z,0
2017-04-24T02:01:49.367Z,0
2017-04-24T02:02:50.129Z,0
2017-04-24T02:03:50.893Z,0
2017-04-24T02:04:51.908Z,0
2017-04-24T02:05:52.672Z,0
2017-04-24T02:06:53.436Z,0
2017-04-24T02:07:54.199Z,0
2017-04-24T02:08:54.965Z,0
2017-04-24T02:09:55.979Z,0
2017-04-24T02:10:56.742Z,0
2017-04-24T02:11:57.505Z,0
2017-04-24T02:12:58.269Z,0
2017-04-24T02:13:59.030Z,0
2017-04-24T02:15:00.282Z,0
2017-04-24T02:16:01.047Z,0
2017-04-24T02:17:01.810Z,0
2017-04-24T02:18:02.574Z,0
2017-04-24T02:19:03.337Z,0
2017-04-24T02:20:04.351Z,0
2017-04-24T02:21:05.125Z,0
2017-04-24T02:22:05.880Z,0
2017-04-24T02:23:06.643Z,0
2017-04-24T02:24:07.410Z,0
2017-04-24T02:25:08.426Z,0
2017-04-24T02:26:09.189Z,0
2017-04-24T02:27:09.953Z,0
2017-04-24T02:28:10.719Z,0
2017-04-24T02:29:11.481Z,0
2017-04-24T02:30:12.497Z,0
2017-04-24T02:31:13.267Z,0
2017-04-24T02:32:14.029Z,0
2017-04-24T02:33:14.794Z,0
2017-04-24T02:34:15.555Z,0
2017-04-24T02:35:16.570Z,0
2017-04-24T02:36:17.335Z,0
2017-04-24T02:37:18.100Z,0
2017-04-24T02:38:18.866Z,0
2017-04-24T02:39:19.629Z,0
2017-04-24T02:40:20.642Z,0
2017-04-24T02:41:21.406Z,0
2017-04-24T02:42:22.168Z,0
2017-04-24T02:43:22.931Z,0
2017-04-24T02:44:23.699Z,0
2017-04-24T02:45:24.709Z,0
2017-04-24T02:46:25.473Z,0
2017-04-24T02:47:26.235Z,0
2017-04-24T02:48:27.004Z,0
2017-04-24T02:49:27.766Z,0
2017-04-24T02:50:28.779Z,0
2017-04-24T02:51:29.543Z,0
2017-04-24T02:52:30.307Z,0
2017-04-24T02:53:31.068Z,0
2017-04-24T02:54:31.835Z,0
2017-04-24T02:55:32.850Z,0
2017-04-24T02:56:33.616Z,0
2017-04-24T02:57:34.377Z,0
2017-04-24T02:58:35.144Z,0
2017-04-24T02:59:35.907Z,0
2017-04-24T03:00:36.921Z,0
2017-04-24T03:01:37.687Z,0
2017-04-24T03:02:38.450Z,0
2017-04-24T03:03:39.222Z,0
2017-04-24T03:04:39.983Z,0
2017-04-24T03:05:40.998Z,0
2017-04-24T03:06:41.767Z,0
2017-04-24T03:07:42.526Z,0
2017-04-24T03:08:43.293Z,0
2017-04-24T03:09:44.058Z,0
2017-04-24T03:10:45.077Z,0
2017-04-24T03:11:45.836Z,0
2017-04-24T03:12:46.603Z,0
2017-04-24T03:13:47.369Z,0
2017-04-24T03:14:48.131Z,0
2017-04-24T03:15:49.145Z,0
2017-04-24T03:16:49.910Z,0
2017-04-24T03:17:50.676Z,0
2017-04-24T03:18:51.447Z,0
2017-04-24T03:19:52.213Z,0
2017-04-24T03:20:53.413Z,0
2017-04-24T03:21:54.179Z,0
2017-04-24T03:22:54.942Z,0
2017-04-24T03:23:55.708Z,0
2017-04-24T03:24:56.476Z,0
2017-04-24T03:25:57.493Z,0
2017-04-24T03:26:58.256Z,0
2017-04-24T03:27:59.023Z,0
2017-04-24T03:28:59.786Z,0
2017-04-24T03:30:00.569Z,0
2017-04-24T03:31:01.573Z,0
2017-04-24T03:32:02.336Z,0
2017-04-24T03:33:03.104Z,0
2017-04-24T03:34:03.870Z,0
2017-04-24T03:35:04.824Z,0
2017-04-24T03:36:05.837Z,0
2017-04-24T03:37:06.601Z,0
2017-04-24T03:38:07.369Z,0
2017-04-24T03:39:08.137Z,0
2017-04-24T03:40:08.902Z,0
2017-04-24T03:41:09.918Z,0
2017-04-24T03:42:10.681Z,0
2017-04-24T03:43:11.447Z,0
2017-04-24T03:44:12.212Z,0
2017-04-24T03:45:12.978Z,0
2017-04-24T03:46:13.989Z,0
2017-04-24T03:47:14.800Z,0
2017-04-24T03:48:16.480Z,0
2017-04-24T03:49:17.246Z,0
2017-04-24T03:50:18.010Z,0
2017-04-24T03:51:19.026Z,0
2017-04-24T03:52:19.794Z,0
2017-04-24T03:53:20.555Z,0
2017-04-24T03:54:21.324Z,0
2017-04-24T03:55:22.088Z,0
2017-04-24T03:56:23.105Z,0
2017-04-24T03:57:23.871Z,0
2017-04-24T03:58:24.636Z,0
2017-04-24T03:59:25.401Z,0
2017-04-24T04:00:26.168Z,0
2017-04-24T04:01:27.182Z,0
2017-04-24T04:02:27.949Z,0
2017-04-24T04:03:28.715Z,0
2017-04-24T04:04:29.483Z,0
2017-04-24T04:05:30.254Z,0
2017-04-24T04:06:31.271Z,0
2017-04-24T04:07:32.038Z,0
2017-04-24T04:08:32.803Z,0
2017-04-24T04:09:33.569Z,0
2017-04-24T04:10:34.338Z,5
2017-04-24T04:11:35.355Z,5
2017-04-24T04:12:36.124Z,5
2017-04-24T04:13:36.893Z,5
2017-04-24T04:14:37.663Z,5
2017-04-24T04:15:38.431Z,5
2017-04-24T04:16:39.447Z,5
2017-04-24T04:17:40.212Z,5
2017-04-24T04:18:40.982Z,10
2017-04-24T04:19:41.755Z,10
2017-04-24T04:20:42.519Z,10
2017-04-24T04:21:43.536Z,10
2017-04-24T04:22:44.306Z,10
2017-04-24T04:23:45.077Z,10
2017-04-24T04:24:45.842Z,15
2017-04-24T04:25:46.609Z,15
2017-04-24T04:26:47.630Z,15
2017-04-24T04:27:48.400Z,15
2017-04-24T04:28:49.171Z,20
2017-04-24T04:29:49.938Z,20
2017-04-24T04:30:50.706Z,20
2017-04-24T04:31:51.725Z,20
2017-04-24T04:32:52.494Z,20
2017-04-24T04:33:53.261Z,25
2017-04-24T04:34:54.031Z,25
2017-04-24T04:35:54.798Z,25
2017-04-24T04:36:55.816Z,30
2017-04-24T04:37:56.586Z,30
2017-04-24T04:38:57.353Z,30
2017-04-24T04:39:58.119Z,30
2017-04-24T04:40:58.889Z,35
2017-04-24T04:41:59.906Z,35
2017-04-24T04:43:00.674Z,35
2017-04-24T04:44:01.442Z,35
2017-04-24T04:45:02.211Z,40
2017-04-24T04:46:02.982Z,40
2017-04-24T04:47:04.002Z,45
2017-04-24T04:48:04.769Z,45
2017-04-24T04:49:05.538Z,45
2017-04-24T04:50:06.309Z,50
2017-04-24T04:51:07.078Z,50
2017-04-24T04:52:08.099Z,50
2017-04-24T04:53:08.868Z,50
2017-04-24T04:54:09.639Z,50
2017-04-24T04:55:10.419Z,50
2017-04-24T04:56:11.190Z,50
2017-04-24T04:57:12.210Z,50
2017-04-24T04:58:12.981Z,55
2017-04-24T04:59:13.747Z,55
2017-04-24T05:00:14.516Z,55
2017-04-24T05:01:15.282Z,55
2017-04-24T05:02:16.303Z,55
2017-04-24T05:03:17.074Z,60
2017-04-24T05:04:17.844Z,60
2017-04-24T05:05:18.613Z,65
2017-04-24T05:06:19.383Z,65
2017-04-24T05:07:20.451Z,65
2017-04-24T05:08:21.220Z,70
2017-04-24T05:09:21.989Z,70
2017-04-24T05:10:22.758Z,75
2017-04-24T05:11:23.530Z,80
2017-04-24T05:12:24.553Z,75
2017-04-24T05:13:25.323Z,75
2017-04-24T05:14:26.093Z,75
2017-04-24T05:15:26.866Z,80
2017-04-24T05:16:27.634Z,75
2017-04-24T05:17:28.657Z,70
2017-04-24T05:18:29.428Z,70
2017-04-24T05:19:30.200Z,70
2017-04-24T05:20:30.971Z,70
2017-04-24T05:21:31.741Z,70
2017-04-24T05:22:32.763Z,75
2017-04-24T05:23:33.535Z,75
2017-04-24T05:24:34.307Z,75
2017-04-24T05:25:35.077Z,80
2017-04-24T05:26:35.843Z,80
2017-04-24T05:27:36.864Z,85
2017-04-24T05:28:37.636Z,85
2017-04-24T05:29:38.405Z,85
2017-04-24T05:30:39.179Z,85
2017-04-24T05:31:39.952Z,85
2017-04-24T05:32:40.975Z,85
2017-04-24T05:33:41.744Z,85
2017-04-24T05:34:42.702Z,90
2017-04-24T05:35:43.474Z,90
2017-04-24T05:36:44.244Z,95
2017-04-24T05:37:45.266Z,95
2017-04-24T05:38:46.039Z,95
2017-04-24T05:39:46.813Z,95
2017-04-24T05:40:47.579Z,100
2017-04-24T05:41:48.351Z,105
2017-04-24T05:42:49.376Z,105
2017-04-24T05:43:50.144Z,110
2017-04-24T05:44:50.918Z,110
2017-04-24T05:45:51.691Z,110
2017-04-24T05:46:52.461Z,115
2017-04-24T05:47:53.482Z,115
2017-04-24T05:48:54.255Z,115
2017-04-24T05:49:55.031Z,115
2017-04-24T05:50:55.811Z,115
2017-04-24T05:51:56.582Z,115
2017-04-24T05:52:57.604Z,120
2017-04-24T05:53:58.374Z,120
2017-04-24T05:54:59.147Z,120
2017-04-24T05:55:59.918Z,125
2017-04-24T05:57:00.693Z,130
2017-04-24T05:58:01.720Z,135
2017-04-24T05:59:02.492Z,145
2017-04-24T06:00:03.265Z,145
2017-04-24T06:01:04.041Z,150
2017-04-24T06:02:04.814Z,150
2017-04-24T06:03:05.836Z,155
2017-04-24T06:04:06.612Z,160
2017-04-24T06:05:07.384Z,160
2017-04-24T06:06:08.159Z,160
2017-04-24T06:07:08.935Z,150
2017-04-24T06:08:09.957Z,150
2017-04-24T06:09:10.731Z,150
2017-04-24T06:10:11.503Z,140
2017-04-24T06:11:12.278Z,135
2017-04-24T06:12:13.051Z,130
2017-04-24T06:13:14.072Z,130
2017-04-24T06:14:14.845Z,130
2017-04-24T06:15:15.619Z,130
2017-04-24T06:16:16.393Z,130
2017-04-24T06:17:17.166Z,135
2017-04-24T06:18:18.192Z,135
2017-04-24T06:19:18.967Z,135
2017-04-24T06:20:19.743Z,130
2017-04-24T06:21:20.516Z,125
2017-04-24T06:22:21.475Z,120
2017-04-24T06:23:22.502Z,115
2017-04-24T06:24:23.274Z,115
2017-04-24T06:25:24.045Z,120
2017-04-24T06:26:24.821Z,125
2017-04-24T06:27:25.593Z,135
2017-04-24T06:28:26.616Z,145
2017-04-24T06:29:27.415Z,160
2017-04-24T06:30:28.165Z,165
2017-04-24T06:31:28.938Z,170
2017-04-24T06:32:29.710Z,170
2017-04-24T06:33:30.782Z,170
2017-04-24T06:34:31.556Z,170
2017-04-24T06:35:32.330Z,175
2017-04-24T06:36:33.105Z,175
2017-04-24T06:37:33.881Z,175
2017-04-24T06:38:34.905Z,180
2017-04-24T06:39:35.681Z,185
2017-04-24T06:40:36.453Z,185
2017-04-24T06:41:37.228Z,190
2017-04-24T06:42:38.018Z,195
2017-04-24T06:43:39.041Z,200
2017-04-24T06:44:39.815Z,205
2017-04-24T06:45:40.593Z,210
2017-04-24T06:46:41.363Z,215
2017-04-24T06:47:42.138Z,220
2017-04-24T06:48:43.161Z,215
2017-04-24T06:49:43.934Z,215
2017-04-24T06:50:44.708Z,215
2017-04-24T06:51:45.483Z,215
2017-04-24T06:52:46.259Z,215
2017-04-24T06:53:47.284Z,210
2017-04-24T06:54:48.061Z,210
2017-04-24T06:55:48.835Z,200
2017-04-24T06:56:49.612Z,195
2017-04-24T06:57:50.391Z,190
2017-04-24T06:58:51.411Z,185
2017-04-24T06:59:52.187Z,180
2017-04-24T07:00:52.962Z,180
2017-04-24T07:01:53.737Z,180
2017-04-24T07:02:54.509Z,185
2017-04-24T07:03:55.535Z,195
2017-04-24T07:04:56.311Z,195
2017-04-24T07:05:57.084Z,200
2017-04-24T07:06:57.858Z,210
2017-04-24T07:07:58.634Z,210
2017-04-24T07:08:59.660Z,220
2017-04-24T07:10:00.434Z,225
2017-04-24T07:11:01.210Z,225
2017-04-24T07:12:01.985Z,225
2017-04-24T07:13:02.760Z,230
2017-04-24T07:14:03.788Z,230
2017-04-24T07:15:04.563Z,235
2017-04-24T07:16:05.338Z,235
2017-04-24T07:17:06.113Z,235
2017-04-24T07:18:06.889Z,230
2017-04-24T07:19:07.913Z,220
2017-04-24T07:20:08.689Z,210
2017-04-24T07:21:09.462Z,210
2017-04-24T07:22:10.239Z,215
2017-04-24T07:23:11.014Z,220
2017-04-24T07:24:12.042Z,215
2017-04-24T07:25:12.817Z,200
2017-04-24T07:26:13.591Z,190
2017-04-24T07:27:14.364Z,195
2017-04-24T07:28:15.138Z,210
2017-04-24T07:29:16.163Z,210
2017-04-24T07:30:16.940Z,210
2017-04-24T07:31:17.716Z,215
2017-04-24T07:32:18.489Z,230
2017-04-24T07:33:19.264Z,265
2017-04-24T07:34:20.288Z,290
2017-04-24T07:35:21.064Z,310
2017-04-24T07:36:21.843Z,320
2017-04-24T07:37:22.617Z,310
2017-04-24T07:38:23.393Z,300
2017-04-24T07:39:24.420Z,285
2017-04-24T07:40:25.197Z,280
2017-04-24T07:41:25.973Z,285
2017-04-24T07:42:26.749Z,270
2017-04-24T07:43:27.708Z,250
2017-04-24T07:44:28.735Z,235
2017-04-24T07:45:29.512Z,235
2017-04-24T07:46:30.286Z,250
2017-04-24T07:47:31.060Z,270
2017-04-24T07:48:31.834Z,295
2017-04-24T07:49:32.862Z,330
2017-04-24T07:50:33.640Z,345
2017-04-24T07:51:34.418Z,360
2017-04-24T07:52:35.198Z,365
2017-04-24T07:53:35.976Z,385
2017-04-24T07:54:37.004Z,440
2017-04-24T07:55:37.784Z,370
2017-04-24T07:56:38.562Z,375
2017-04-24T07:57:39.348Z,405
2017-04-24T07:58:40.123Z,400
2017-04-24T07:59:41.150Z,385
2017-04-24T08:00:41.928Z,345
2017-04-24T08:01:42.707Z,335
2017-04-24T08:02:43.485Z,320
2017-04-24T08:03:44.263Z,310
2017-04-24T08:04:45.291Z,315
2017-04-24T08:05:46.069Z,340
2017-04-24T08:06:46.846Z,385
2017-04-24T08:07:47.622Z,445
2017-04-24T08:08:48.398Z,430
2017-04-24T08:09:49.427Z,375
2017-04-24T08:10:50.204Z,340
2017-04-24T08:11:50.983Z,365
2017-04-24T08:12:51.760Z,400
2017-04-24T08:13:52.539Z,410
2017-04-24T08:14:53.567Z,435
2017-04-24T08:15:54.345Z,420
2017-04-24T08:16:55.122Z,395
2017-04-24T08:17:55.901Z,430
2017-04-24T08:18:56.683Z,485
2017-04-24T08:19:57.711Z,590
2017-04-24T08:20:58.491Z,685
2017-04-24T08:21:59.273Z,645
2017-04-24T08:23:00.242Z,575
2017-04-24T08:24:01.023Z,590
2017-04-24T08:25:02.054Z,615
2017-04-24T08:26:02.836Z,760
2017-04-24T08:27:03.619Z,500
2017-04-24T08:28:04.406Z,505
2017-04-24T08:29:05.182Z,640
2017-04-24T08:30:06.218Z,1250
2017-04-24T08:31:06.999Z,650
2017-04-24T08:32:07.781Z,585
2017-04-24T08:33:08.565Z,590
2017-04-24T08:34:09.347Z,655
2017-04-24T08:35:10.379Z,785
2017-04-24T08:36:11.165Z,820
2017-04-24T08:37:11.945Z,880
2017-04-24T08:38:12.731Z,690
2017-04-24T08:39:13.516Z,605
2017-04-24T08:40:14.548Z,635
2017-04-24T08:41:15.332Z,955
2017-04-24T08:42:16.116Z,1210
2017-04-24T08:43:16.901Z,1345
2017-04-24T08:44:17.685Z,655
2017-04-24T08:45:18.723Z,535
2017-04-24T08:46:19.507Z,765
2017-04-24T08:47:20.292Z,1015
2017-04-24T08:48:21.077Z,1170
2017-04-24T08:49:21.861Z,1425
2017-04-24T08:50:22.896Z,845
2017-04-24T08:51:23.683Z,1435
2017-04-24T08:52:24.472Z,1360
2017-04-24T08:53:25.258Z,870
2017-04-24T08:54:26.049Z,1325
2017-04-24T08:55:27.082Z,765
2017-04-24T08:56:27.872Z,745
2017-04-24T08:57:28.654Z,850
2017-04-24T08:58:29.440Z,1485
2017-04-24T08:59:30.227Z,1450
2017-04-24T09:00:31.312Z,645
2017-04-24T09:01:32.102Z,1555
2017-04-24T09:02:32.890Z,1515
2017-04-24T09:03:33.683Z,1390
2017-04-24T09:04:34.477Z,1390
2017-04-24T09:05:35.520Z,1040
2017-04-24T09:06:36.313Z,1575
2017-04-24T09:07:37.107Z,1560
2017-04-24T09:08:37.903Z,1450
2017-04-24T09:09:38.694Z,1350
2017-04-24T09:10:39.733Z,1330
2017-04-24T09:11:40.522Z,1455
2017-04-24T09:12:41.312Z,1515
2017-04-24T09:13:42.104Z,1010
2017-04-24T09:14:42.893Z,1645
2017-04-24T09:15:43.933Z,1600
2017-04-24T09:16:44.721Z,1650
2017-04-24T09:17:45.510Z,1685
2017-04-24T09:18:46.300Z,1725
2017-04-24T09:19:47.087Z,1690
2017-04-24T09:20:48.130Z,1520
2017-04-24T09:21:48.921Z,1490
2017-04-24T09:22:49.713Z,1515
2017-04-24T09:23:50.503Z,1605
2017-04-24T09:24:51.293Z,1620
2017-04-24T09:25:52.335Z,1590
2017-04-24T09:26:53.128Z,1570
2017-04-24T09:27:53.917Z,1605
2017-04-24T09:28:54.706Z,1755
2017-04-24T09:29:55.495Z,1755
2017-04-24T09:30:56.536Z,1700
2017-04-24T09:31:57.325Z,1735
2017-04-24T09:32:58.117Z,1630
2017-04-24T09:33:58.906Z,1695
2017-04-24T09:34:59.697Z,1795
2017-04-24T09:36:00.738Z,2005
2017-04-24T09:37:01.530Z,1805
2017-04-24T09:38:02.322Z,1540
2017-04-24T09:39:03.117Z,1610
2017-04-24T09:40:03.906Z,1605
2017-04-24T09:41:04.947Z,1585
2017-04-24T09:42:05.741Z,1735
2017-04-24T09:43:06.534Z,1860
2017-04-24T09:44:07.325Z,1815
2017-04-24T09:45:08.303Z,1765
2017-04-24T09:46:09.346Z,1775
2017-04-24T09:47:10.136Z,1615
2017-04-24T09:48:10.929Z,1710
2017-04-24T09:49:11.719Z,1935
2017-04-24T09:50:12.510Z,1695
2017-04-24T09:51:13.554Z,1840
2017-04-24T09:52:14.348Z,1885
2017-04-24T09:53:15.141Z,1900
2017-04-24T09:54:15.937Z,2025
2017-04-24T09:55:16.726Z,2020
2017-04-24T09:56:17.770Z,1885
2017-04-24T09:57:18.563Z,2030
2017-04-24T09:58:19.357Z,2010
2017-04-24T09:59:20.154Z,1740
2017-04-24T10:00:20.944Z,2050
2017-04-24T10:01:21.984Z,2265
2017-04-24T10:02:22.776Z,2425
2017-04-24T10:03:23.578Z,2325
2017-04-24T10:04:24.370Z,1945
2017-04-24T10:05:25.165Z,2135
2017-04-24T10:06:26.257Z,2075
2017-04-24T10:07:27.050Z,1875
2017-04-24T10:08:27.845Z,2020
2017-04-24T10:09:28.636Z,2495
2017-04-24T10:10:29.432Z,2140
2017-04-24T10:11:30.662Z,2335
2017-04-24T10:12:31.456Z,2565
2017-04-24T10:13:32.251Z,2355
2017-04-24T10:14:33.049Z,2220
2017-04-24T10:15:33.839Z,2060
2017-04-24T10:16:34.883Z,1630
2017-04-24T10:17:35.677Z,1675
2017-04-24T10:18:36.468Z,2110
2017-04-24T10:19:37.264Z,2160
2017-04-24T10:20:38.057Z,2235
2017-04-24T10:21:39.101Z,1345
2017-04-24T10:22:39.893Z,1840
2017-04-24T10:23:40.686Z,2115
2017-04-24T10:24:41.477Z,2075
2017-04-24T10:25:42.271Z,1465
2017-04-24T10:26:43.313Z,1265
2017-04-24T10:27:44.107Z,1630
2017-04-24T10:28:44.899Z,2105
2017-04-24T10:29:45.689Z,2660
2017-04-24T10:30:46.480Z,1805
2017-04-24T10:31:47.523Z,1105
2017-04-24T10:32:48.313Z,1565
2017-04-24T10:33:49.104Z,1035
2017-04-24T10:34:49.898Z,1075
2017-04-24T10:35:50.690Z,1135
2017-04-24T10:36:51.731Z,1965
2017-04-24T10:37:52.526Z,2150
2017-04-24T10:38:53.317Z,1375
2017-04-24T10:39:54.109Z,1860
2017-04-24T10:40:54.901Z,1820
2017-04-24T10:41:55.943Z,2120
2017-04-24T10:42:56.732Z,965
2017-04-24T10:43:57.523Z,875
2017-04-24T10:44:58.316Z,835
2017-04-24T10:45:59.104Z,835
2017-04-24T10:47:00.195Z,770
2017-04-24T10:48:00.981Z,720
2017-04-24T10:49:01.769Z,855
2017-04-24T10:50:02.553Z,970
2017-04-24T10:51:03.344Z,865
2017-04-24T10:52:04.386Z,910
2017-04-24T10:53:05.175Z,1100
2017-04-24T10:54:05.965Z,795
2017-04-24T10:55:06.753Z,840
2017-04-24T10:56:07.539Z,890
2017-04-24T10:57:08.578Z,785
2017-04-24T10:58:09.368Z,715
2017-04-24T10:59:10.160Z,795
2017-04-24T11:00:10.948Z,2055
2017-04-24T11:01:11.740Z,1455
2017-04-24T11:02:12.780Z,915
2017-04-24T11:03:13.571Z,715
2017-04-24T11:04:14.363Z,1675
2017-04-24T11:05:15.155Z,1815
2017-04-24T11:06:15.947Z,1185
2017-04-24T11:07:16.988Z,1660
2017-04-24T11:08:17.777Z,1205
2017-04-24T11:09:18.566Z,1300
2017-04-24T11:10:19.352Z,1740
2017-04-24T11:11:20.140Z,2075
2017-04-24T11:12:21.179Z,940
2017-04-24T11:13:21.973Z,1280
2017-04-24T11:14:22.762Z,1915
2017-04-24T11:15:23.555Z,2085
2017-04-24T11:16:24.342Z,2155
2017-04-24T11:17:25.384Z,2190
2017-04-24T11:18:26.179Z,1935
2017-04-24T11:19:26.969Z,710
2017-04-24T11:20:27.757Z,690
2017-04-24T11:21:28.544Z,760
2017-04-24T11:22:29.585Z,795
2017-04-24T11:23:30.374Z,930
2017-04-24T11:24:31.162Z,945
2017-04-24T11:25:31.952Z,1160
2017-04-24T11:26:32.740Z,1320
2017-04-24T11:27:33.780Z,915
2017-04-24T11:28:34.569Z,1150
2017-04-24T11:29:35.357Z,795
2017-04-24T11:30:36.147Z,1035
2017-04-24T11:31:36.938Z,920
2017-04-24T11:32:38.028Z,965
2017-04-24T11:33:38.821Z,1935
2017-04-24T11:34:39.612Z,2525
2017-04-24T11:35:40.402Z,2530
2017-04-24T11:36:41.188Z,2615
2017-04-24T11:37:42.229Z,2150
2017-04-24T11:38:43.016Z,2685
2017-04-24T11:39:43.807Z,2825
2017-04-24T11:40:44.599Z,3225
2017-04-24T11:41:45.391Z,3110
2017-04-24T11:42:46.436Z,1560
2017-04-24T11:43:47.229Z,2605
2017-04-24T11:44:48.018Z,2575
2017-04-24T11:45:48.813Z,2580
2017-04-24T11:46:49.604Z,740
2017-04-24T11:47:50.698Z,1285
2017-04-24T11:48:51.677Z,580
2017-04-24T11:49:52.468Z,535
2017-04-24T11:50:53.257Z,515
2017-04-24T11:51:54.046Z,530
2017-04-24T11:52:55.089Z,675
2017-04-24T11:53:55.878Z,620
2017-04-24T11:54:56.671Z,630
2017-04-24T11:55:57.467Z,645
2017-04-24T11:56:58.344Z,655
2017-04-24T11:57:59.436Z,805
2017-04-24T11:59:00.253Z,670
2017-04-24T12:00:01.038Z,640
2017-04-24T12:01:01.829Z,845
2017-04-24T12:02:02.618Z,830
2017-04-24T12:03:03.663Z,2195
2017-04-24T12:04:04.451Z,2225
2017-04-24T12:05:05.239Z,2195
2017-04-24T12:06:06.029Z,1825
2017-04-24T12:07:06.825Z,2435
2017-04-24T12:08:07.931Z,2530
2017-04-24T12:09:08.735Z,2375
2017-04-24T12:10:09.491Z,2165
2017-04-24T12:11:10.368Z,2160
2017-04-24T12:12:11.174Z,2065
2017-04-24T12:13:12.228Z,535
2017-04-24T12:14:13.254Z,555
2017-04-24T12:15:14.053Z,2280
2017-04-24T12:16:14.880Z,835
2017-04-24T12:17:15.886Z,1800
2017-04-24T12:18:16.978Z,1350
2017-04-24T12:19:17.767Z,600
2017-04-24T12:20:18.570Z,705
2017-04-24T12:21:19.349Z,1090
2017-04-24T12:22:20.137Z,2180
2017-04-24T12:23:21.224Z,510
2017-04-24T12:24:22.054Z,440
2017-04-24T12:25:22.843Z,420
2017-04-24T12:26:23.823Z,575
2017-04-24T12:27:24.608Z,570
2017-04-24T12:28:25.649Z,545
2017-04-24T12:29:26.436Z,455
2017-04-24T12:30:27.226Z,395
2017-04-24T12:31:28.018Z,405
2017-04-24T12:32:28.808Z,505
2017-04-24T12:33:29.846Z,810
2017-04-24T12:34:30.634Z,870
2017-04-24T12:35:31.425Z,575
2017-04-24T12:36:32.213Z,460
2017-04-24T12:37:33.007Z,420
2017-04-24T12:38:34.045Z,450
2017-04-24T12:39:34.830Z,520
2017-04-24T12:40:35.622Z,555
2017-04-24T12:41:36.413Z,610
2017-04-24T12:42:37.205Z,1475
2017-04-24T12:43:38.288Z,965
2017-04-24T12:44:39.079Z,690
2017-04-24T12:45:39.869Z,640
2017-04-24T12:46:40.658Z,2160
2017-04-24T12:47:41.451Z,565
2017-04-24T12:48:42.489Z,540
2017-04-24T12:49:43.465Z,2005
2017-04-24T12:50:44.260Z,1990
2017-04-24T12:51:45.050Z,2235
2017-04-24T12:52:45.842Z,1880
2017-04-24T12:53:46.885Z,2265
2017-04-24T12:54:47.674Z,2070
2017-04-24T12:55:48.459Z,890
2017-04-24T12:56:49.248Z,1170
2017-04-24T12:57:50.037Z,1590
2017-04-24T12:58:51.075Z,1660
2017-04-24T12:59:51.867Z,2110
2017-04-24T13:00:52.655Z,1315
2017-04-24T13:01:53.447Z,1280
2017-04-24T13:02:54.239Z,1110
2017-04-24T13:03:55.331Z,1425
2017-04-24T13:04:56.119Z,1155
2017-04-24T13:05:56.906Z,2120
2017-04-24T13:06:57.695Z,1995
2017-04-24T13:07:58.487Z,1920
2017-04-24T13:08:59.527Z,1920
2017-04-24T13:10:00.319Z,1600
2017-04-24T13:11:01.111Z,1765
2017-04-24T13:12:01.902Z,620
2017-04-24T13:13:02.693Z,475
2017-04-24T13:14:03.785Z,705
2017-04-24T13:15:04.569Z,585
2017-04-24T13:16:05.363Z,645
2017-04-24T13:17:06.148Z,510
2017-04-24T13:18:06.936Z,415
2017-04-24T13:19:07.980Z,380
2017-04-24T13:20:08.768Z,385
2017-04-24T13:21:09.557Z,410
2017-04-24T13:22:10.348Z,380
2017-04-24T13:23:11.135Z,335
2017-04-24T13:24:12.227Z,270
2017-04-24T13:25:13.029Z,195
2017-04-24T13:26:13.804Z,140
2017-04-24T13:27:14.591Z,115
2017-04-24T13:28:15.379Z,105
2017-04-24T13:29:16.420Z,115
2017-04-24T13:30:17.207Z,130
2017-04-24T13:31:17.988Z,140
2017-04-24T13:32:18.774Z,155
2017-04-24T13:33:19.556Z,160
2017-04-24T13:34:20.637Z,145
2017-04-24T13:35:21.419Z,115
2017-04-24T13:36:22.206Z,100
2017-04-24T13:37:22.988Z,100
2017-04-24T13:38:23.772Z,105
2017-04-24T13:39:24.804Z,105
2017-04-24T13:40:25.643Z,100
2017-04-24T13:41:26.362Z,100
2017-04-24T13:42:27.145Z,120
2017-04-24T13:43:27.930Z,140
2017-04-24T13:44:28.959Z,145
2017-04-24T13:45:29.741Z,140
2017-04-24T13:46:30.519Z,150
2017-04-24T13:47:31.301Z,145
2017-04-24T13:48:32.082Z,130
2017-04-24T13:49:33.112Z,120
2017-04-24T13:50:33.894Z,110
2017-04-24T13:51:34.674Z,100
2017-04-24T13:52:35.455Z,95
2017-04-24T13:53:36.423Z,90
2017-04-24T13:54:37.500Z,90
2017-04-24T13:55:38.277Z,90
2017-04-24T13:56:39.055Z,90
2017-04-24T13:57:39.833Z,90
2017-04-24T13:58:40.611Z,90
2017-04-24T13:59:41.688Z,90
2017-04-24T14:00:42.467Z,95
2017-04-24T14:01:43.246Z,100
2017-04-24T14:02:44.025Z,100
2017-04-24T14:03:44.804Z,100
2017-04-24T14:04:45.836Z,100
2017-04-24T14:05:46.613Z,110
2017-04-24T14:06:47.394Z,110
2017-04-24T14:07:48.170Z,105
2017-04-24T14:08:48.949Z,105
2017-04-24T14:09:49.978Z,135
2017-04-24T14:10:50.759Z,195
2017-04-24T14:11:51.537Z,210